Etusivu
METAR-TAF:

METAR-TAF

Lentoasemat :

Matsuyama, Japani

Leveyspiiri: 33-49N, Pituuspiiri: 132-42E, korkeus merenpinnasta: 4 m

Tämänhetkinen sää

Tämä raportti tehtiin 55 minuuttia sitten, kello 02.00 UTC
Tuuli 7 kn pohjoisen/luoteesta
Lämpötila 24°C
Kosteus 57%
Ilmanpaine 1018 hPa
Näkyvyys 10 km tai enemmän
ei pilviä alle 1500 m:ssä eikä cumulonimbus-pilviä

METAR: RJOM 260200Z 34007KT CAVOK 24/15 Q1018

Aika: 11:55 (02:55 UTC)

Sääennuste

Tämä raportti tehtiin 3 tuntia ja 49 minuuttia sitten, kello 23.06 UTC
Ennuste voimassa 26. päivästä klo 00 UTC - 27. päivään klo 06 UTC
Tuuli 8 kn pohjoisesta
Näkyvyys 10 km tai enemmän
Muutamia pilviä 3500 ft:n korkeudessa
Tulossa
26. päivästä klo 08 UTC - 26. päivään klo 10 UTC
Tuuli 5 kn idästä/kaakosta
Tulossa
26. päivästä klo 21 UTC - 27. päivään klo 00 UTC
Tuuli 8 kn lännestä/lounaasta

TAF: RJOM 252306Z 2600/2706 35008KT 9999 FEW035 BECMG 2608/2610 12005KT BECMG 2621/2700 24008KT

Säähavainnot ja -ennusteet yli 4000 lentoasemalta (METAR- ja TAF-raportit).

Käytössä olevat sääasemat on merkitty karttaan keltaisilla ja punaisilla pisteillä.

Aseta hiiri pisteen päälle nähdäksesi sääaseman nimen.

Klikkaa sitten nähdäksesi säähavainnot ja -ennusteet.

Kartan vaihtaminen: klikkaa mustalla rastilla varustettuja vihreitä pisteitä, niin voit zoomata sisään; viivalla varustettua vihreää pistettä, niin voit zoomata ulos tai vihreitä nuolia, niin pääset viereisille kartoille.


METAR-TAF: